sensor_id;sensor_type;location;lat;lon;timestamp;pressure;altitude;pressure_sealevel;temperature;humidity
64019;BME280;66942;52.138;5.216;2023-03-21T00:01:40;101648.0;;;15.26;64.2
64019;BME280;66942;52.138;5.216;2023-03-21T00:03:16;101645.0;;;15.34;63.87
64019;BME280;66942;52.138;5.216;2023-03-21T00:04:52;101644.0;;;15.04;64.7
64019;BME280;66942;52.138;5.216;2023-03-21T00:08:04;101639.0;;;15.19;64.25
64019;BME280;66942;52.138;5.216;2023-03-21T00:09:41;101637.0;;;15.23;64.19
64019;BME280;66942;52.138;5.216;2023-03-21T00:11:17;101641.0;;;15.15;64.36
64019;BME280;66942;52.138;5.216;2023-03-21T00:14:29;101635.0;;;15.21;64.27
64019;BME280;66942;52.138;5.216;2023-03-21T00:16:08;101632.0;;;14.97;64.8
64019;BME280;66942;52.138;5.216;2023-03-21T00:17:44;101633.0;;;15.12;64.53
64019;BME280;66942;52.138;5.216;2023-03-21T00:19:20;101630.0;;;14.9;65.09
64019;BME280;66942;52.138;5.216;2023-03-21T00:22:35;101630.0;;;15.2;64.3
64019;BME280;66942;52.138;5.216;2023-03-21T00:24:11;101631.0;;;15.19;64.28
64019;BME280;66942;52.138;5.216;2023-03-21T00:25:47;101628.0;;;14.94;64.84
64019;BME280;66942;52.138;5.216;2023-03-21T00:28:59;101627.0;;;15.07;64.7
64019;BME280;66942;52.138;5.216;2023-03-21T00:30:35;101627.0;;;15.11;64.36
64019;BME280;66942;52.138;5.216;2023-03-21T00:32:15;101630.0;;;15.1;64.52
64019;BME280;66942;52.138;5.216;2023-03-21T00:33:51;101625.0;;;15.06;64.58
64019;BME280;66942;52.138;5.216;2023-03-21T00:37:03;101630.0;;;14.78;65.22
64019;BME280;66942;52.138;5.216;2023-03-21T00:38:39;101625.0;;;14.91;64.97
64019;BME280;66942;52.138;5.216;2023-03-21T00:40:16;101622.0;;;15.1;64.42
64019;BME280;66942;52.138;5.216;2023-03-21T00:43:28;101622.0;;;15.11;64.38
64019;BME280;66942;52.138;5.216;2023-03-21T00:45:04;101617.0;;;15.03;64.66
64019;BME280;66942;52.138;5.216;2023-03-21T00:46:41;101616.0;;;15.0;64.74
64019;BME280;66942;52.138;5.216;2023-03-21T00:49:53;101616.0;;;14.97;64.84
64019;BME280;66942;52.138;5.216;2023-03-21T00:51:30;101609.0;;;15.09;64.53
64019;BME280;66942;52.138;5.216;2023-03-21T00:53:06;101612.0;;;15.03;64.64
64019;BME280;66942;52.138;5.216;2023-03-21T00:56:19;101606.0;;;14.99;64.77
64019;BME280;66942;52.138;5.216;2023-03-21T00:57:55;101605.0;;;15.01;64.83
64019;BME280;66942;52.138;5.216;2023-03-21T00:59:31;101605.0;;;14.94;64.97
64019;BME280;66942;52.138;5.216;2023-03-21T01:01:07;101601.0;;;14.95;65.12
64019;BME280;66942;52.138;5.216;2023-03-21T01:04:20;101598.0;;;14.95;64.97
64019;BME280;66942;52.138;5.216;2023-03-21T01:05:58;101596.0;;;15.01;64.77
64019;BME280;66942;52.138;5.216;2023-03-21T01:07:34;101590.0;;;15.1;64.5
64019;BME280;66942;52.138;5.216;2023-03-21T01:10:49;101592.0;;;14.97;64.78
64019;BME280;66942;52.138;5.216;2023-03-21T01:12:26;101588.0;;;15.01;64.83
64019;BME280;66942;52.138;5.216;2023-03-21T01:14:02;101584.0;;;14.93;65.02
64019;BME280;66942;52.138;5.216;2023-03-21T01:17:20;101582.0;;;14.99;64.85
64019;BME280;66942;52.138;5.216;2023-03-21T01:18:56;101580.0;;;14.91;64.98
64019;BME280;66942;52.138;5.216;2023-03-21T01:20:33;101576.0;;;15.01;64.83
64019;BME280;66942;52.138;5.216;2023-03-21T01:22:09;101575.0;;;14.96;64.91
64019;BME280;66942;52.138;5.216;2023-03-21T01:25:23;101574.0;;;15.04;64.72
64019;BME280;66942;52.138;5.216;2023-03-21T01:27:00;101576.0;;;14.73;65.52
64019;BME280;66942;52.138;5.216;2023-03-21T01:28:39;101577.0;;;14.86;65.24
64019;BME280;66942;52.138;5.216;2023-03-21T01:31:53;101573.0;;;14.69;65.48
64019;BME280;66942;52.138;5.216;2023-03-21T01:33:30;101568.0;;;14.96;64.92
64019;BME280;66942;52.138;5.216;2023-03-21T01:35:07;101564.0;;;15.06;64.55
64019;BME280;66942;52.138;5.216;2023-03-21T01:36:44;101567.0;;;15.0;64.81
64019;BME280;66942;52.138;5.216;2023-03-21T01:39:56;101561.0;;;15.06;64.55
64019;BME280;66942;52.138;5.216;2023-03-21T01:41:34;101561.0;;;15.11;64.44
64019;BME280;66942;52.138;5.216;2023-03-21T01:43:21;101560.0;;;14.91;64.94
64019;BME280;66942;52.138;5.216;2023-03-21T01:45:00;101557.0;;;15.05;64.6
64019;BME280;66942;52.138;5.216;2023-03-21T01:48:17;101549.0;;;14.8;65.19
64019;BME280;66942;52.138;5.216;2023-03-21T01:49:56;101550.0;;;14.94;64.94
64019;BME280;66942;52.138;5.216;2023-03-21T01:51:37;101547.0;;;15.09;64.44
64019;BME280;66942;52.138;5.216;2023-03-21T01:54:56;101546.0;;;14.89;64.97
64019;BME280;66942;52.138;5.216;2023-03-21T01:56:36;101550.0;;;14.8;65.19
64019;BME280;66942;52.138;5.216;2023-03-21T01:58:14;101543.0;;;14.83;65.27
64019;BME280;66942;52.138;5.216;2023-03-21T01:59:53;101540.0;;;14.83;65.16
64019;BME280;66942;52.138;5.216;2023-03-21T02:03:08;101540.0;;;14.95;64.86
64019;BME280;66942;52.138;5.216;2023-03-21T02:04:45;101532.0;;;14.85;64.91
64019;BME280;66942;52.138;5.216;2023-03-21T02:06:27;101531.0;;;14.88;64.88
64019;BME280;66942;52.138;5.216;2023-03-21T02:08:05;101527.0;;;14.97;64.72
64019;BME280;66942;52.138;5.216;2023-03-21T02:11:22;101525.0;;;14.92;64.78
64019;BME280;66942;52.138;5.216;2023-03-21T02:12:59;101528.0;;;14.94;64.6
64019;BME280;66942;52.138;5.216;2023-03-21T02:14:38;101523.0;;;14.96;64.64
64019;BME280;66942;52.138;5.216;2023-03-21T02:18:06;101520.0;;;14.71;65.2
64019;BME280;66942;52.138;5.216;2023-03-21T02:20:44;101519.0;;;14.96;64.7
64019;BME280;66942;52.138;5.216;2023-03-21T02:24:20;101514.0;;;14.83;65.05
64019;BME280;66942;52.138;5.216;2023-03-21T02:28:08;101510.0;;;15.02;64.42
64019;BME280;66942;52.138;5.216;2023-03-21T02:33:44;101510.0;;;14.92;64.77
64019;BME280;66942;52.138;5.216;2023-03-21T02:37:05;101503.0;;;14.97;64.61
64019;BME280;66942;52.138;5.216;2023-03-21T02:38:53;101505.0;;;14.83;64.97
64019;BME280;66942;52.138;5.216;2023-03-21T02:40:33;101499.0;;;14.87;64.8
64019;BME280;66942;52.138;5.216;2023-03-21T02:42:17;101500.0;;;14.91;64.69
64019;BME280;66942;52.138;5.216;2023-03-21T02:43:59;101500.0;;;14.91;64.55
64019;BME280;66942;52.138;5.216;2023-03-21T02:45:44;101494.0;;;14.98;64.44
64019;BME280;66942;52.138;5.216;2023-03-21T02:49:10;101495.0;;;14.9;64.66
64019;BME280;66942;52.138;5.216;2023-03-21T02:50:53;101493.0;;;14.76;65.08
64019;BME280;66942;52.138;5.216;2023-03-21T02:52:33;101492.0;;;14.77;65.02
64019;BME280;66942;52.138;5.216;2023-03-21T02:54:14;101488.0;;;14.85;64.81
64019;BME280;66942;52.138;5.216;2023-03-21T02:57:29;101492.0;;;14.86;64.73
64019;BME280;66942;52.138;5.216;2023-03-21T02:59:06;101489.0;;;14.84;64.78
64019;BME280;66942;52.138;5.216;2023-03-21T03:00:45;101489.0;;;14.5;65.47
64019;BME280;66942;52.138;5.216;2023-03-21T03:02:25;101488.0;;;14.75;64.85
64019;BME280;66942;52.138;5.216;2023-03-21T03:05:42;101484.0;;;14.65;65.22
64019;BME280;66942;52.138;5.216;2023-03-21T03:07:32;101483.0;;;14.65;65.06
64019;BME280;66942;52.138;5.216;2023-03-21T03:09:24;101483.0;;;14.75;64.8
64019;BME280;66942;52.138;5.216;2023-03-21T03:11:15;101486.0;;;14.7;64.95
64019;BME280;66942;52.138;5.216;2023-03-21T03:13:06;101484.0;;;14.8;64.7
64019;BME280;66942;52.138;5.216;2023-03-21T03:16:38;101485.0;;;14.92;64.38
64019;BME280;66942;52.138;5.216;2023-03-21T03:18:27;101483.0;;;14.87;64.44
64019;BME280;66942;52.138;5.216;2023-03-21T03:20:20;101482.0;;;14.67;65.03
64019;BME280;66942;52.138;5.216;2023-03-21T03:22:05;101485.0;;;14.84;64.42
64019;BME280;66942;52.138;5.216;2023-03-21T03:23:47;101483.0;;;14.82;64.64
64019;BME280;66942;52.138;5.216;2023-03-21T03:25:28;101480.0;;;14.66;65.19
64019;BME280;66942;52.138;5.216;2023-03-21T03:28:51;101483.0;;;14.68;65.02
64019;BME280;66942;52.138;5.216;2023-03-21T03:30:29;101480.0;;;14.73;64.94
64019;BME280;66942;52.138;5.216;2023-03-21T03:32:08;101471.0;;;14.72;64.91
64019;BME280;66942;52.138;5.216;2023-03-21T03:33:48;101473.0;;;14.65;65.05
64019;BME280;66942;52.138;5.216;2023-03-21T03:37:07;101478.0;;;14.78;64.69
64019;BME280;66942;52.138;5.216;2023-03-21T03:38:48;101477.0;;;14.73;64.91
64019;BME280;66942;52.138;5.216;2023-03-21T03:40:28;101475.0;;;14.78;64.66
64019;BME280;66942;52.138;5.216;2023-03-21T03:42:08;101474.0;;;14.83;64.55
64019;BME280;66942;52.138;5.216;2023-03-21T03:45:33;101471.0;;;14.63;64.8
64019;BME280;66942;52.138;5.216;2023-03-21T03:47:20;101470.0;;;14.59;65.17
64019;BME280;66942;52.138;5.216;2023-03-21T03:49:01;101466.0;;;14.81;64.47
64019;BME280;66942;52.138;5.216;2023-03-21T03:50:43;101467.0;;;14.7;64.45
64019;BME280;66942;52.138;5.216;2023-03-21T03:54:08;101461.0;;;14.62;64.97
64019;BME280;66942;52.138;5.216;2023-03-21T03:55:48;101465.0;;;14.54;65.22
64019;BME280;66942;52.138;5.216;2023-03-21T03:57:26;101461.0;;;14.55;65.22
64019;BME280;66942;52.138;5.216;2023-03-21T03:59:03;101465.0;;;14.55;65.06
64019;BME280;66942;52.138;5.216;2023-03-21T04:02:16;101463.0;;;14.59;64.87
64019;BME280;66942;52.138;5.216;2023-03-21T04:03:52;101458.0;;;14.62;64.85
64019;BME280;66942;52.138;5.216;2023-03-21T04:05:28;101455.0;;;14.7;64.59
64019;BME280;66942;52.138;5.216;2023-03-21T04:08:40;101457.0;;;14.79;64.22
64019;BME280;66942;52.138;5.216;2023-03-21T04:10:18;101457.0;;;14.6;64.77
64019;BME280;66942;52.138;5.216;2023-03-21T04:11:56;101458.0;;;14.63;64.78
64019;BME280;66942;52.138;5.216;2023-03-21T04:13:32;101458.0;;;14.61;64.77
64019;BME280;66942;52.138;5.216;2023-03-21T04:16:46;101455.0;;;14.6;64.72
64019;BME280;66942;52.138;5.216;2023-03-21T04:18:23;101457.0;;;14.81;64.12
64019;BME280;66942;52.138;5.216;2023-03-21T04:19:59;101455.0;;;14.77;64.27
64019;BME280;66942;52.138;5.216;2023-03-21T04:23:12;101455.0;;;14.72;64.47
64019;BME280;66942;52.138;5.216;2023-03-21T04:24:47;101452.0;;;14.75;64.45
64019;BME280;66942;52.138;5.216;2023-03-21T04:26:24;101452.0;;;14.73;64.53
64019;BME280;66942;52.138;5.216;2023-03-21T04:29:36;101450.0;;;14.51;64.88
64019;BME280;66942;52.138;5.216;2023-03-21T04:31:12;101450.0;;;14.63;64.75
64019;BME280;66942;52.138;5.216;2023-03-21T04:32:48;101446.0;;;14.69;64.52
64019;BME280;66942;52.138;5.216;2023-03-21T04:34:24;101448.0;;;14.66;64.66
64019;BME280;66942;52.138;5.216;2023-03-21T04:37:37;101448.0;;;14.67;64.58
64019;BME280;66942;52.138;5.216;2023-03-21T04:39:13;101443.0;;;14.8;64.23
64019;BME280;66942;52.138;5.216;2023-03-21T04:40:50;101446.0;;;14.67;64.7
64019;BME280;66942;52.138;5.216;2023-03-21T04:44:02;101445.0;;;14.64;64.78
64019;BME280;66942;52.138;5.216;2023-03-21T04:45:38;101444.0;;;14.73;64.47
64019;BME280;66942;52.138;5.216;2023-03-21T04:47:15;101441.0;;;14.6;64.83
64019;BME280;66942;52.138;5.216;2023-03-21T04:50:29;101441.0;;;14.62;64.86
64019;BME280;66942;52.138;5.216;2023-03-21T04:52:05;101436.0;;;14.54;64.97
64019;BME280;66942;52.138;5.216;2023-03-21T04:53:41;101440.0;;;14.83;64.0
64019;BME280;66942;52.138;5.216;2023-03-21T04:56:53;101439.0;;;14.71;64.34
64019;BME280;66942;52.138;5.216;2023-03-21T04:58:29;101435.0;;;14.68;64.47
64019;BME280;66942;52.138;5.216;2023-03-21T05:00:07;101436.0;;;14.6;64.77
64019;BME280;66942;52.138;5.216;2023-03-21T05:01:46;101435.0;;;14.61;64.5
64019;BME280;66942;52.138;5.216;2023-03-21T05:04:58;101437.0;;;14.53;64.62
64019;BME280;66942;52.138;5.216;2023-03-21T05:06:34;101434.0;;;14.68;64.33
64019;BME280;66942;52.138;5.216;2023-03-21T05:08:11;101437.0;;;14.56;64.6
64019;BME280;66942;52.138;5.216;2023-03-21T05:11:25;101436.0;;;14.51;64.58
64019;BME280;66942;52.138;5.216;2023-03-21T05:13:02;101433.0;;;14.48;64.61
64019;BME280;66942;52.138;5.216;2023-03-21T05:14:38;101433.0;;;14.48;64.6
64019;BME280;66942;52.138;5.216;2023-03-21T05:16:14;101430.0;;;14.51;64.53
64019;BME280;66942;52.138;5.216;2023-03-21T05:19:29;101430.0;;;14.52;64.47
64019;BME280;66942;52.138;5.216;2023-03-21T05:21:05;101425.0;;;14.47;64.59
64019;BME280;66942;52.138;5.216;2023-03-21T05:22:42;101425.0;;;14.55;64.22
64019;BME280;66942;52.138;5.216;2023-03-21T05:25:57;101424.0;;;14.41;64.66
64019;BME280;66942;52.138;5.216;2023-03-21T05:27:33;101425.0;;;14.31;64.98
64019;BME280;66942;52.138;5.216;2023-03-21T05:29:10;101423.0;;;14.18;65.49
64019;BME280;66942;52.138;5.216;2023-03-21T05:32:22;101422.0;;;14.32;65.08
64019;BME280;66942;52.138;5.216;2023-03-21T05:33:59;101423.0;;;14.54;64.33
64019;BME280;66942;52.138;5.216;2023-03-21T05:35:36;101422.0;;;14.35;64.92
64019;BME280;66942;52.138;5.216;2023-03-21T05:37:12;101422.0;;;14.57;64.3
64019;BME280;66942;52.138;5.216;2023-03-21T05:40:25;101417.0;;;14.27;65.11
64019;BME280;66942;52.138;5.216;2023-03-21T05:42:01;101417.0;;;14.34;64.95
64019;BME280;66942;52.138;5.216;2023-03-21T05:43:37;101417.0;;;14.35;64.97
64019;BME280;66942;52.138;5.216;2023-03-21T05:46:50;101416.0;;;14.42;64.61
64019;BME280;66942;52.138;5.216;2023-03-21T05:48:27;101412.0;;;14.41;64.44
64019;BME280;66942;52.138;5.216;2023-03-21T05:50:03;101414.0;;;14.27;65.03
64019;BME280;66942;52.138;5.216;2023-03-21T05:53:16;101417.0;;;14.25;65.19
64019;BME280;66942;52.138;5.216;2023-03-21T05:54:52;101414.0;;;14.29;65.06
64019;BME280;66942;52.138;5.216;2023-03-21T05:56:28;101411.0;;;14.35;64.8
64019;BME280;66942;52.138;5.216;2023-03-21T05:59:40;101409.0;;;14.39;64.73
64019;BME280;66942;52.138;5.216;2023-03-21T06:01:16;101408.0;;;14.35;64.64
64019;BME280;66942;52.138;5.216;2023-03-21T06:02:52;101406.0;;;14.36;64.63
64019;BME280;66942;52.138;5.216;2023-03-21T06:04:28;101410.0;;;14.37;64.63
64019;BME280;66942;52.138;5.216;2023-03-21T06:07:40;101412.0;;;14.43;64.52
64019;BME280;66942;52.138;5.216;2023-03-21T06:09:17;101411.0;;;14.21;65.3
64019;BME280;66942;52.138;5.216;2023-03-21T06:10:53;101413.0;;;14.36;64.83
64019;BME280;66942;52.138;5.216;2023-03-21T06:14:05;101413.0;;;14.27;65.27
64019;BME280;66942;52.138;5.216;2023-03-21T06:15:41;101414.0;;;14.35;64.91
64019;BME280;66942;52.138;5.216;2023-03-21T06:17:18;101411.0;;;14.37;64.75
64019;BME280;66942;52.138;5.216;2023-03-21T06:20:31;101411.0;;;14.32;64.98
64019;BME280;66942;52.138;5.216;2023-03-21T06:22:07;101411.0;;;14.36;64.98
64019;BME280;66942;52.138;5.216;2023-03-21T06:23:43;101411.0;;;14.36;64.8
64019;BME280;66942;52.138;5.216;2023-03-21T06:25:19;101412.0;;;14.58;64.2
64019;BME280;66942;52.138;5.216;2023-03-21T06:28:32;101413.0;;;14.42;64.75
64019;BME280;66942;52.138;5.216;2023-03-21T06:30:10;101412.0;;;14.6;64.27
64019;BME280;66942;52.138;5.216;2023-03-21T06:31:47;101413.0;;;14.57;64.36
64019;BME280;66942;52.138;5.216;2023-03-21T06:34:59;101413.0;;;14.26;65.3
64019;BME280;66942;52.138;5.216;2023-03-21T06:36:35;101411.0;;;14.53;64.53
64019;BME280;66942;52.138;5.216;2023-03-21T06:38:11;101417.0;;;14.53;64.56
64019;BME280;66942;52.138;5.216;2023-03-21T06:41:24;101413.0;;;14.47;64.77
64019;BME280;66942;52.138;5.216;2023-03-21T06:43:00;101417.0;;;14.52;64.61
64019;BME280;66942;52.138;5.216;2023-03-21T06:44:36;101417.0;;;14.48;64.69
64019;BME280;66942;52.138;5.216;2023-03-21T06:46:12;101422.0;;;14.59;64.33
64019;BME280;66942;52.138;5.216;2023-03-21T06:49:24;101419.0;;;14.63;64.35
64019;BME280;66942;52.138;5.216;2023-03-21T06:51:00;101422.0;;;14.71;64.13
64019;BME280;66942;52.138;5.216;2023-03-21T06:52:37;101417.0;;;14.61;64.52
64019;BME280;66942;52.138;5.216;2023-03-21T06:55:49;101417.0;;;14.69;64.09
64019;BME280;66942;52.138;5.216;2023-03-21T06:57:26;101419.0;;;14.87;63.55
64019;BME280;66942;52.138;5.216;2023-03-21T06:59:02;101421.0;;;14.78;63.68
64019;BME280;66942;52.138;5.216;2023-03-21T07:02:15;101420.0;;;14.75;63.72
64019;BME280;66942;52.138;5.216;2023-03-21T07:03:51;101420.0;;;14.73;63.93
64019;BME280;66942;52.138;5.216;2023-03-21T07:05:27;101425.0;;;14.81;63.78
64019;BME280;66942;52.138;5.216;2023-03-21T07:08:40;101420.0;;;14.96;63.27
64019;BME280;66942;52.138;5.216;2023-03-21T07:10:16;101421.0;;;14.93;63.42
64019;BME280;66942;52.138;5.216;2023-03-21T07:11:53;101426.0;;;14.91;63.47
64019;BME280;66942;52.138;5.216;2023-03-21T07:13:29;101430.0;;;14.92;63.2
64019;BME280;66942;52.138;5.216;2023-03-21T07:16:44;101430.0;;;15.0;63.1
64019;BME280;66942;52.138;5.216;2023-03-21T07:18:21;101422.0;;;15.06;62.86
64019;BME280;66942;52.138;5.216;2023-03-21T07:19:57;101425.0;;;14.94;63.26
64019;BME280;66942;52.138;5.216;2023-03-21T07:23:10;101427.0;;;14.99;62.97
64019;BME280;66942;52.138;5.216;2023-03-21T07:24:46;101424.0;;;14.81;63.73
64019;BME280;66942;52.138;5.216;2023-03-21T07:26:23;101425.0;;;14.78;63.85
64019;BME280;66942;52.138;5.216;2023-03-21T07:29:35;101432.0;;;14.87;63.59
64019;BME280;66942;52.138;5.216;2023-03-21T07:31:13;101424.0;;;14.94;63.36
64019;BME280;66942;52.138;5.216;2023-03-21T07:32:50;101422.0;;;14.94;63.38
64019;BME280;66942;52.138;5.216;2023-03-21T07:34:27;101418.0;;;14.8;63.89
64019;BME280;66942;52.138;5.216;2023-03-21T07:37:47;101412.0;;;14.84;63.58
64019;BME280;66942;52.138;5.216;2023-03-21T07:39:23;101405.0;;;15.05;63.34
64019;BME280;66942;52.138;5.216;2023-03-21T07:40:59;101402.0;;;15.05;63.15
64019;BME280;66942;52.138;5.216;2023-03-21T07:44:11;101397.0;;;15.22;62.86
64019;BME280;66942;52.138;5.216;2023-03-21T07:45:47;101395.0;;;15.02;63.21
64019;BME280;66942;52.138;5.216;2023-03-21T07:47:24;101388.0;;;15.1;62.9
64019;BME280;66942;52.138;5.216;2023-03-21T07:49:00;101382.0;;;15.12;62.95
64019;BME280;66942;52.138;5.216;2023-03-21T07:52:12;101385.0;;;15.24;62.91
64019;BME280;66942;52.138;5.216;2023-03-21T07:53:48;101383.0;;;15.04;63.22
64019;BME280;66942;52.138;5.216;2023-03-21T07:55:24;101380.0;;;15.17;63.1
64019;BME280;66942;52.138;5.216;2023-03-21T07:58:37;101382.0;;;15.29;62.87
64019;BME280;66942;52.138;5.216;2023-03-21T08:00:14;101387.0;;;15.07;63.83
64019;BME280;66942;52.138;5.216;2023-03-21T08:01:50;101388.0;;;15.26;63.31
64019;BME280;66942;52.138;5.216;2023-03-21T08:05:02;101390.0;;;15.13;63.46
64019;BME280;66942;52.138;5.216;2023-03-21T08:06:40;101392.0;;;15.28;63.23
64019;BME280;66942;52.138;5.216;2023-03-21T08:08:16;101391.0;;;15.15;63.81
64019;BME280;66942;52.138;5.216;2023-03-21T08:09:52;101390.0;;;15.49;62.99
64019;BME280;66942;52.138;5.216;2023-03-21T08:13:05;101389.0;;;15.09;64.31
64019;BME280;66942;52.138;5.216;2023-03-21T08:14:41;101385.0;;;15.12;64.08
64019;BME280;66942;52.138;5.216;2023-03-21T08:16:17;101386.0;;;15.26;64.12
64019;BME280;66942;52.138;5.216;2023-03-21T08:19:29;101380.0;;;15.26;63.74
64019;BME280;66942;52.138;5.216;2023-03-21T08:21:06;101380.0;;;15.4;63.01
64019;BME280;66942;52.138;5.216;2023-03-21T08:22:42;101375.0;;;15.42;63.13
64019;BME280;66942;52.138;5.216;2023-03-21T08:25:55;101377.0;;;15.62;62.8
64019;BME280;66942;52.138;5.216;2023-03-21T08:27:32;101374.0;;;15.67;62.79
64019;BME280;66942;52.138;5.216;2023-03-21T08:29:09;101374.0;;;15.36;63.76
64019;BME280;66942;52.138;5.216;2023-03-21T08:32:21;101366.0;;;15.52;63.4
64019;BME280;66942;52.138;5.216;2023-03-21T08:33:58;101367.0;;;15.62;63.12
64019;BME280;66942;52.138;5.216;2023-03-21T08:35:34;101367.0;;;15.67;62.93
64019;BME280;66942;52.138;5.216;2023-03-21T08:37:10;101362.0;;;15.59;62.75
64019;BME280;66942;52.138;5.216;2023-03-21T08:40:22;101361.0;;;15.67;62.96
64019;BME280;66942;52.138;5.216;2023-03-21T08:41:58;101357.0;;;15.64;63.28
64019;BME280;66942;52.138;5.216;2023-03-21T08:43:34;101353.0;;;15.79;62.63
64019;BME280;66942;52.138;5.216;2023-03-21T08:46:49;101350.0;;;15.57;62.87
64019;BME280;66942;52.138;5.216;2023-03-21T08:48:25;101349.0;;;15.69;63.29
64019;BME280;66942;52.138;5.216;2023-03-21T08:50:02;101351.0;;;15.65;63.23
64019;BME280;66942;52.138;5.216;2023-03-21T08:53:14;101351.0;;;15.7;62.97
64019;BME280;66942;52.138;5.216;2023-03-21T08:54:51;101349.0;;;15.74;63.27
64019;BME280;66942;52.138;5.216;2023-03-21T08:56:27;101342.0;;;15.71;62.75
64019;BME280;66942;52.138;5.216;2023-03-21T08:58:03;101330.0;;;15.73;62.83
64019;BME280;66942;52.138;5.216;2023-03-21T09:01:16;101326.0;;;15.78;62.7
64019;BME280;66942;52.138;5.216;2023-03-21T09:02:53;101325.0;;;16.0;61.81
64019;BME280;66942;52.138;5.216;2023-03-21T09:04:28;101330.0;;;15.9;61.7
64019;BME280;66942;52.138;5.216;2023-03-21T09:07:41;101324.0;;;15.67;61.89
64019;BME280;66942;52.138;5.216;2023-03-21T09:09:18;101326.0;;;15.77;61.91
64019;BME280;66942;52.138;5.216;2023-03-21T09:10:54;101325.0;;;15.7;62.45
64019;BME280;66942;52.138;5.216;2023-03-21T09:14:07;101319.0;;;15.71;62.16
64019;BME280;66942;52.138;5.216;2023-03-21T09:15:44;101316.0;;;15.87;62.08
64019;BME280;66942;52.138;5.216;2023-03-21T09:17:20;101315.0;;;15.77;62.4
64019;BME280;66942;52.138;5.216;2023-03-21T09:18:57;101314.0;;;15.99;61.5
64019;BME280;66942;52.138;5.216;2023-03-21T09:22:10;101313.0;;;15.67;61.95
64019;BME280;66942;52.138;5.216;2023-03-21T09:23:46;101312.0;;;15.63;62.34
64019;BME280;66942;52.138;5.216;2023-03-21T09:25:24;101312.0;;;15.74;62.56
64019;BME280;66942;52.138;5.216;2023-03-21T09:28:36;101307.0;;;15.58;62.47
64019;BME280;66942;52.138;5.216;2023-03-21T09:30:13;101303.0;;;15.93;61.76
64019;BME280;66942;52.138;5.216;2023-03-21T09:31:51;101302.0;;;15.72;61.7
64019;BME280;66942;52.138;5.216;2023-03-21T09:35:04;101303.0;;;15.8;62.46
64019;BME280;66942;52.138;5.216;2023-03-21T09:36:41;101303.0;;;16.04;62.42
64019;BME280;66942;52.138;5.216;2023-03-21T09:38:18;101298.0;;;16.21;61.33
64019;BME280;66942;52.138;5.216;2023-03-21T09:39:54;101292.0;;;16.14;61.65
64019;BME280;66942;52.138;5.216;2023-03-21T09:43:30;101298.0;;;16.32;61.37
64019;BME280;66942;52.138;5.216;2023-03-21T09:45:18;101302.0;;;16.27;61.54
64019;BME280;66942;52.138;5.216;2023-03-21T09:47:02;101305.0;;;16.34;61.19
64019;BME280;66942;52.138;5.216;2023-03-21T09:48:49;101303.0;;;16.41;60.74
64019;BME280;66942;52.138;5.216;2023-03-21T09:50:33;101302.0;;;16.0;60.52
64019;BME280;66942;52.138;5.216;2023-03-21T09:53:58;101298.0;;;15.82;60.58
64019;BME280;66942;52.138;5.216;2023-03-21T09:55:40;101306.0;;;15.95;60.57
64019;BME280;66942;52.138;5.216;2023-03-21T09:57:24;101305.0;;;16.04;60.68
64019;BME280;66942;52.138;5.216;2023-03-21T09:59:06;101290.0;;;15.94;60.71
64019;BME280;66942;52.138;5.216;2023-03-21T10:00:48;101298.0;;;15.97;61.74
64019;BME280;66942;52.138;5.216;2023-03-21T10:04:14;101296.0;;;16.13;60.63
64019;BME280;66942;52.138;5.216;2023-03-21T10:05:52;101297.0;;;16.03;60.42
64019;BME280;66942;52.138;5.216;2023-03-21T10:07:30;101297.0;;;16.31;61.32
64019;BME280;66942;52.138;5.216;2023-03-21T10:09:16;101297.0;;;16.27;61.12
64019;BME280;66942;52.138;5.216;2023-03-21T10:12:36;101297.0;;;16.43;60.32
64019;BME280;66942;52.138;5.216;2023-03-21T10:14:16;101296.0;;;16.53;59.6
64019;BME280;66942;52.138;5.216;2023-03-21T10:15:56;101293.0;;;16.59;59.37
64019;BME280;66942;52.138;5.216;2023-03-21T10:17:35;101298.0;;;16.43;59.29
64019;BME280;66942;52.138;5.216;2023-03-21T10:20:53;101294.0;;;16.75;59.34
64019;BME280;66942;52.138;5.216;2023-03-21T10:22:30;101286.0;;;16.78;59.45
64019;BME280;66942;52.138;5.216;2023-03-21T10:24:10;101288.0;;;16.87;59.19
64019;BME280;66942;52.138;5.216;2023-03-21T10:27:30;101286.0;;;16.68;59.47
64019;BME280;66942;52.138;5.216;2023-03-21T10:29:08;101290.0;;;16.81;59.23
64019;BME280;66942;52.138;5.216;2023-03-21T10:30:50;101284.0;;;16.97;59.02
64019;BME280;66942;52.138;5.216;2023-03-21T10:32:27;101276.0;;;16.57;58.52
64019;BME280;66942;52.138;5.216;2023-03-21T10:35:55;101280.0;;;16.82;59.0
64019;BME280;66942;52.138;5.216;2023-03-21T10:37:33;101274.0;;;16.96;59.3
64019;BME280;66942;52.138;5.216;2023-03-21T10:39:20;101275.0;;;16.97;58.99
64019;BME280;66942;52.138;5.216;2023-03-21T10:40:57;101267.0;;;16.82;58.29
64019;BME280;66942;52.138;5.216;2023-03-21T10:44:11;101267.0;;;17.27;58.39
64019;BME280;66942;52.138;5.216;2023-03-21T10:45:49;101257.0;;;17.09;57.62
64019;BME280;66942;52.138;5.216;2023-03-21T10:47:29;101264.0;;;17.22;58.77
64019;BME280;66942;52.138;5.216;2023-03-21T10:49:07;101271.0;;;17.46;59.31
64019;BME280;66942;52.138;5.216;2023-03-21T10:52:26;101275.0;;;17.28;57.6
64019;BME280;66942;52.138;5.216;2023-03-21T10:54:05;101267.0;;;17.36;56.86
64019;BME280;66942;52.138;5.216;2023-03-21T10:55:47;101266.0;;;17.73;56.74
64019;BME280;66942;52.138;5.216;2023-03-21T10:57:26;101269.0;;;17.75;57.24
64019;BME280;66942;52.138;5.216;2023-03-21T11:00:42;101271.0;;;17.8;55.97
64019;BME280;66942;52.138;5.216;2023-03-21T11:02:22;101276.0;;;17.86;56.24
64019;BME280;66942;52.138;5.216;2023-03-21T11:04:06;101271.0;;;17.68;55.37
64019;BME280;66942;52.138;5.216;2023-03-21T11:05:44;101275.0;;;17.75;55.56
64019;BME280;66942;52.138;5.216;2023-03-21T11:09:00;101275.0;;;17.66;55.56
64019;BME280;66942;52.138;5.216;2023-03-21T11:10:50;101285.0;;;17.39;55.4
64019;BME280;66942;52.138;5.216;2023-03-21T11:12:32;101275.0;;;17.22;55.61
64019;BME280;66942;52.138;5.216;2023-03-21T11:14:26;101272.0;;;17.7;55.62